sensor_id;sensor_type;location;lat;lon;timestamp;pressure;altitude;pressure_sealevel;temperature;humidity
79372;BME280;68914;51.262;6.802;2023-10-19T00:00:57;99162.44;;;16.14;nan
79372;BME280;68914;51.262;6.802;2023-10-19T00:02:00;99166.50;;;16.02;nan
79372;BME280;68914;51.262;6.802;2023-10-19T00:03:00;99155.06;;;17.19;nan
79372;BME280;68914;51.262;6.802;2023-10-19T00:04:03;99165.66;;;16.56;nan
79372;BME280;68914;51.262;6.802;2023-10-19T00:05:04;99158.38;;;16.71;nan
79372;BME280;68914;51.262;6.802;2023-10-19T00:06:10;99152.19;;;17.10;nan
79372;BME280;68914;51.262;6.802;2023-10-19T00:07:11;99148.94;;;16.50;nan
79372;BME280;68914;51.262;6.802;2023-10-19T00:08:16;99153.06;;;16.66;nan
79372;BME280;68914;51.262;6.802;2023-10-19T00:09:23;99151.13;;;16.38;nan
79372;BME280;68914;51.262;6.802;2023-10-19T00:10:26;99153.75;;;17.16;nan
79372;BME280;68914;51.262;6.802;2023-10-19T00:11:33;99154.53;;;16.48;nan
79372;BME280;68914;51.262;6.802;2023-10-19T00:12:33;99156.84;;;16.21;nan
79372;BME280;68914;51.262;6.802;2023-10-19T00:13:35;99150.59;;;15.96;nan
79372;BME280;68914;51.262;6.802;2023-10-19T00:14:38;99142.44;;;16.27;nan
79372;BME280;68914;51.262;6.802;2023-10-19T00:15:39;99146.63;;;16.72;nan
79372;BME280;68914;51.262;6.802;2023-10-19T00:16:44;99146.22;;;17.48;nan
79372;BME280;68914;51.262;6.802;2023-10-19T00:17:51;99141.47;;;16.91;nan
79372;BME280;68914;51.262;6.802;2023-10-19T00:18:55;99140.81;;;17.05;nan
79372;BME280;68914;51.262;6.802;2023-10-19T00:19:59;99135.72;;;16.35;nan
79372;BME280;68914;51.262;6.802;2023-10-19T00:21:19;99141.41;;;16.96;nan
79372;BME280;68914;51.262;6.802;2023-10-19T00:22:20;99137.19;;;16.56;nan
79372;BME280;68914;51.262;6.802;2023-10-19T00:23:22;99150.72;;;16.20;nan
79372;BME280;68914;51.262;6.802;2023-10-19T00:24:29;99143.00;;;15.64;nan
79372;BME280;68914;51.262;6.802;2023-10-19T00:25:32;99146.06;;;16.41;nan
79372;BME280;68914;51.262;6.802;2023-10-19T00:26:35;99141.97;;;16.54;nan
79372;BME280;68914;51.262;6.802;2023-10-19T00:27:35;99144.47;;;16.40;nan
79372;BME280;68914;51.262;6.802;2023-10-19T00:28:36;99146.63;;;15.89;nan
79372;BME280;68914;51.262;6.802;2023-10-19T00:29:39;99137.59;;;17.08;nan
79372;BME280;68914;51.262;6.802;2023-10-19T00:30:49;99140.00;;;16.75;nan
79372;BME280;68914;51.262;6.802;2023-10-19T00:31:53;99146.22;;;16.60;nan
79372;BME280;68914;51.262;6.802;2023-10-19T00:32:56;99141.47;;;16.86;nan
79372;BME280;68914;51.262;6.802;2023-10-19T00:33:57;99141.09;;;17.03;nan
79372;BME280;68914;51.262;6.802;2023-10-19T00:34:58;99140.19;;;16.84;nan
79372;BME280;68914;51.262;6.802;2023-10-19T00:36:08;99149.63;;;15.62;nan
79372;BME280;68914;51.262;6.802;2023-10-19T00:37:21;99140.78;;;15.92;nan
79372;BME280;68914;51.262;6.802;2023-10-19T00:38:27;99137.44;;;16.60;nan
79372;BME280;68914;51.262;6.802;2023-10-19T00:39:30;99138.50;;;16.93;nan
79372;BME280;68914;51.262;6.802;2023-10-19T00:40:41;99135.97;;;16.43;nan
79372;BME280;68914;51.262;6.802;2023-10-19T00:41:45;99142.63;;;16.41;nan
79372;BME280;68914;51.262;6.802;2023-10-19T00:42:46;99136.41;;;17.43;nan
79372;BME280;68914;51.262;6.802;2023-10-19T00:43:53;99132.53;;;16.72;nan
79372;BME280;68914;51.262;6.802;2023-10-19T00:45:12;99136.44;;;16.85;nan
79372;BME280;68914;51.262;6.802;2023-10-19T00:46:15;99133.13;;;16.98;nan
79372;BME280;68914;51.262;6.802;2023-10-19T00:47:19;99131.97;;;17.09;nan
79372;BME280;68914;51.262;6.802;2023-10-19T00:48:25;99134.41;;;17.30;nan
79372;BME280;68914;51.262;6.802;2023-10-19T00:49:26;99129.88;;;16.77;nan
79372;BME280;68914;51.262;6.802;2023-10-19T00:50:27;99131.50;;;17.02;nan
79372;BME280;68914;51.262;6.802;2023-10-19T00:51:48;99135.38;;;16.86;nan
79372;BME280;68914;51.262;6.802;2023-10-19T00:52:52;99142.25;;;16.92;nan
79372;BME280;68914;51.262;6.802;2023-10-19T00:53:55;99136.84;;;17.26;nan
79372;BME280;68914;51.262;6.802;2023-10-19T00:54:56;99137.13;;;17.25;nan
79372;BME280;68914;51.262;6.802;2023-10-19T00:55:59;99133.28;;;17.12;nan
79372;BME280;68914;51.262;6.802;2023-10-19T00:57:02;99136.69;;;17.17;nan
79372;BME280;68914;51.262;6.802;2023-10-19T00:58:10;99142.50;;;16.90;nan
79372;BME280;68914;51.262;6.802;2023-10-19T00:59:19;99137.06;;;16.71;nan
79372;BME280;68914;51.262;6.802;2023-10-19T01:00:23;99137.94;;;16.96;nan
79372;BME280;68914;51.262;6.802;2023-10-19T01:01:35;99143.75;;;16.69;nan
79372;BME280;68914;51.262;6.802;2023-10-19T01:02:41;99141.03;;;16.40;nan
79372;BME280;68914;51.262;6.802;2023-10-19T01:03:46;99140.94;;;16.50;nan
79372;BME280;68914;51.262;6.802;2023-10-19T01:04:54;99148.88;;;17.24;nan
79372;BME280;68914;51.262;6.802;2023-10-19T01:06:01;99151.34;;;16.86;nan
79372;BME280;68914;51.262;6.802;2023-10-19T01:07:06;99152.63;;;17.47;nan
79372;BME280;68914;51.262;6.802;2023-10-19T01:08:15;99151.44;;;16.76;nan
79372;BME280;68914;51.262;6.802;2023-10-19T01:09:31;99143.41;;;17.10;nan
79372;BME280;68914;51.262;6.802;2023-10-19T01:10:39;99134.91;;;17.08;nan
79372;BME280;68914;51.262;6.802;2023-10-19T01:11:42;99148.09;;;17.23;nan
79372;BME280;68914;51.262;6.802;2023-10-19T01:12:46;99150.59;;;17.09;nan
79372;BME280;68914;51.262;6.802;2023-10-19T01:13:47;99148.88;;;16.94;nan
79372;BME280;68914;51.262;6.802;2023-10-19T01:16:11;99139.84;;;16.90;nan
79372;BME280;68914;51.262;6.802;2023-10-19T01:17:16;99122.06;;;16.86;nan
79372;BME280;68914;51.262;6.802;2023-10-19T01:18:16;99124.25;;;16.79;nan
79372;BME280;68914;51.262;6.802;2023-10-19T01:19:17;99126.97;;;16.34;nan
79372;BME280;68914;51.262;6.802;2023-10-19T01:20:21;99120.59;;;16.30;nan
79372;BME280;68914;51.262;6.802;2023-10-19T01:21:31;99123.44;;;16.83;nan
79372;BME280;68914;51.262;6.802;2023-10-19T01:22:45;99126.75;;;16.26;nan
79372;BME280;68914;51.262;6.802;2023-10-19T01:23:46;99122.75;;;16.67;nan
79372;BME280;68914;51.262;6.802;2023-10-19T01:24:48;99134.28;;;16.13;nan
79372;BME280;68914;51.262;6.802;2023-10-19T01:25:55;99135.03;;;16.58;nan
79372;BME280;68914;51.262;6.802;2023-10-19T01:26:55;99134.94;;;16.39;nan
79372;BME280;68914;51.262;6.802;2023-10-19T01:27:57;99135.00;;;16.98;nan
79372;BME280;68914;51.262;6.802;2023-10-19T01:28:58;99131.06;;;16.95;nan
79372;BME280;68914;51.262;6.802;2023-10-19T01:30:03;99140.06;;;16.99;nan
79372;BME280;68914;51.262;6.802;2023-10-19T01:31:05;99144.78;;;16.34;nan
79372;BME280;68914;51.262;6.802;2023-10-19T01:32:08;99130.66;;;16.38;nan
79372;BME280;68914;51.262;6.802;2023-10-19T01:33:09;99135.19;;;16.72;nan
79372;BME280;68914;51.262;6.802;2023-10-19T01:34:30;99139.63;;;16.08;nan
79372;BME280;68914;51.262;6.802;2023-10-19T01:35:30;99137.94;;;16.28;nan
79372;BME280;68914;51.262;6.802;2023-10-19T01:36:51;99143.94;;;16.43;nan
79372;BME280;68914;51.262;6.802;2023-10-19T01:37:51;99139.00;;;17.24;nan
79372;BME280;68914;51.262;6.802;2023-10-19T01:38:54;99141.69;;;17.24;nan
79372;BME280;68914;51.262;6.802;2023-10-19T01:39:55;99141.59;;;17.82;nan
79372;BME280;68914;51.262;6.802;2023-10-19T01:40:57;99136.19;;;17.39;nan
79372;BME280;68914;51.262;6.802;2023-10-19T01:41:59;99134.53;;;17.19;nan
79372;BME280;68914;51.262;6.802;2023-10-19T01:43:00;99144.34;;;16.61;nan
79372;BME280;68914;51.262;6.802;2023-10-19T01:44:00;99138.22;;;17.24;nan
79372;BME280;68914;51.262;6.802;2023-10-19T01:45:08;99135.56;;;17.24;nan
79372;BME280;68914;51.262;6.802;2023-10-19T01:46:13;99136.13;;;17.20;nan
79372;BME280;68914;51.262;6.802;2023-10-19T01:47:17;99130.34;;;17.61;nan
79372;BME280;68914;51.262;6.802;2023-10-19T01:48:20;99129.34;;;18.00;nan
79372;BME280;68914;51.262;6.802;2023-10-19T01:49:32;99121.38;;;17.76;nan
79372;BME280;68914;51.262;6.802;2023-10-19T01:50:33;99130.56;;;17.89;nan
79372;BME280;68914;51.262;6.802;2023-10-19T01:51:36;99131.03;;;17.48;nan
79372;BME280;68914;51.262;6.802;2023-10-19T01:52:40;99127.63;;;17.66;nan
79372;BME280;68914;51.262;6.802;2023-10-19T01:53:41;99119.66;;;17.85;nan
79372;BME280;68914;51.262;6.802;2023-10-19T01:54:45;99119.19;;;17.59;nan
79372;BME280;68914;51.262;6.802;2023-10-19T01:55:45;99116.38;;;17.21;nan
79372;BME280;68914;51.262;6.802;2023-10-19T01:56:50;99118.81;;;17.42;nan
79372;BME280;68914;51.262;6.802;2023-10-19T01:57:51;99119.47;;;18.19;nan
79372;BME280;68914;51.262;6.802;2023-10-19T01:58:52;99122.72;;;17.74;nan
79372;BME280;68914;51.262;6.802;2023-10-19T01:59:54;99122.72;;;18.35;nan
79372;BME280;68914;51.262;6.802;2023-10-19T02:00:56;99127.00;;;18.69;nan
79372;BME280;68914;51.262;6.802;2023-10-19T02:02:00;99112.63;;;17.94;nan
79372;BME280;68914;51.262;6.802;2023-10-19T02:03:08;99111.38;;;18.25;nan
79372;BME280;68914;51.262;6.802;2023-10-19T02:04:09;99111.69;;;18.04;nan
79372;BME280;68914;51.262;6.802;2023-10-19T02:05:10;99118.31;;;18.07;nan
79372;BME280;68914;51.262;6.802;2023-10-19T02:06:15;99115.09;;;18.10;nan
79372;BME280;68914;51.262;6.802;2023-10-19T02:07:35;99117.53;;;17.87;nan
79372;BME280;68914;51.262;6.802;2023-10-19T02:08:36;99114.00;;;17.92;nan
79372;BME280;68914;51.262;6.802;2023-10-19T02:09:38;99112.84;;;17.55;nan
79372;BME280;68914;51.262;6.802;2023-10-19T02:10:39;99108.31;;;17.99;nan
79372;BME280;68914;51.262;6.802;2023-10-19T02:11:42;99115.22;;;17.33;nan
79372;BME280;68914;51.262;6.802;2023-10-19T02:12:43;99109.97;;;18.13;nan
79372;BME280;68914;51.262;6.802;2023-10-19T02:13:47;99107.00;;;17.96;nan
79372;BME280;68914;51.262;6.802;2023-10-19T02:14:48;99110.72;;;18.33;nan
79372;BME280;68914;51.262;6.802;2023-10-19T02:15:48;99107.31;;;18.13;nan
79372;BME280;68914;51.262;6.802;2023-10-19T02:16:51;99105.53;;;17.85;nan
79372;BME280;68914;51.262;6.802;2023-10-19T02:17:53;99109.16;;;18.13;nan
79372;BME280;68914;51.262;6.802;2023-10-19T02:18:56;99098.25;;;18.47;nan
79372;BME280;68914;51.262;6.802;2023-10-19T02:19:57;99100.44;;;18.07;nan
79372;BME280;68914;51.262;6.802;2023-10-19T02:20:58;99098.81;;;17.44;nan
79372;BME280;68914;51.262;6.802;2023-10-19T02:22:02;99098.25;;;18.80;nan
79372;BME280;68914;51.262;6.802;2023-10-19T02:23:08;99105.81;;;18.91;nan
79372;BME280;68914;51.262;6.802;2023-10-19T02:24:10;99100.88;;;18.14;nan
79372;BME280;68914;51.262;6.802;2023-10-19T02:25:14;99103.59;;;18.09;nan
79372;BME280;68914;51.262;6.802;2023-10-19T02:26:15;99107.06;;;18.80;nan
79372;BME280;68914;51.262;6.802;2023-10-19T02:27:17;99103.34;;;18.62;nan
79372;BME280;68914;51.262;6.802;2023-10-19T02:28:18;99102.41;;;18.72;nan
79372;BME280;68914;51.262;6.802;2023-10-19T02:29:19;99107.16;;;18.56;nan
79372;BME280;68914;51.262;6.802;2023-10-19T02:30:19;99107.34;;;18.46;nan
79372;BME280;68914;51.262;6.802;2023-10-19T02:31:20;99108.75;;;18.06;nan
79372;BME280;68914;51.262;6.802;2023-10-19T02:32:25;99112.13;;;18.63;nan
79372;BME280;68914;51.262;6.802;2023-10-19T02:33:25;99104.97;;;17.88;nan
79372;BME280;68914;51.262;6.802;2023-10-19T02:34:27;99108.06;;;17.76;nan
79372;BME280;68914;51.262;6.802;2023-10-19T02:35:27;99104.06;;;17.31;nan
79372;BME280;68914;51.262;6.802;2023-10-19T02:36:29;99105.44;;;16.99;nan
79372;BME280;68914;51.262;6.802;2023-10-19T02:37:30;99098.97;;;17.34;nan
79372;BME280;68914;51.262;6.802;2023-10-19T02:38:31;99104.84;;;17.07;nan
79372;BME280;68914;51.262;6.802;2023-10-19T02:39:33;99106.75;;;17.02;nan
79372;BME280;68914;51.262;6.802;2023-10-19T02:40:34;99098.09;;;17.39;nan
79372;BME280;68914;51.262;6.802;2023-10-19T02:41:43;99095.50;;;16.81;nan
79372;BME280;68914;51.262;6.802;2023-10-19T02:42:45;99096.16;;;17.44;nan
79372;BME280;68914;51.262;6.802;2023-10-19T02:43:47;99095.25;;;17.06;nan
79372;BME280;68914;51.262;6.802;2023-10-19T02:44:51;99096.63;;;17.28;nan
79372;BME280;68914;51.262;6.802;2023-10-19T02:45:52;99089.72;;;17.03;nan
79372;BME280;68914;51.262;6.802;2023-10-19T02:46:55;99095.75;;;17.08;nan
79372;BME280;68914;51.262;6.802;2023-10-19T02:47:59;99093.72;;;17.48;nan
79372;BME280;68914;51.262;6.802;2023-10-19T02:49:01;99102.44;;;17.30;nan
79372;BME280;68914;51.262;6.802;2023-10-19T02:50:02;99090.66;;;17.60;nan
79372;BME280;68914;51.262;6.802;2023-10-19T02:51:11;99089.97;;;16.72;nan
79372;BME280;68914;51.262;6.802;2023-10-19T02:52:12;99097.88;;;17.11;nan
79372;BME280;68914;51.262;6.802;2023-10-19T02:53:16;99089.44;;;17.28;nan
79372;BME280;68914;51.262;6.802;2023-10-19T02:54:21;99099.50;;;17.55;nan
79372;BME280;68914;51.262;6.802;2023-10-19T02:55:31;99102.84;;;17.18;nan
79372;BME280;68914;51.262;6.802;2023-10-19T02:56:32;99096.66;;;17.70;nan
79372;BME280;68914;51.262;6.802;2023-10-19T02:57:36;99097.63;;;17.56;nan
79372;BME280;68914;51.262;6.802;2023-10-19T02:58:41;99100.91;;;17.72;nan
79372;BME280;68914;51.262;6.802;2023-10-19T02:59:43;99097.94;;;17.54;nan
79372;BME280;68914;51.262;6.802;2023-10-19T03:00:47;99096.47;;;17.62;nan
79372;BME280;68914;51.262;6.802;2023-10-19T03:01:49;99089.75;;;17.45;nan
79372;BME280;68914;51.262;6.802;2023-10-19T03:02:51;99095.75;;;18.18;nan
79372;BME280;68914;51.262;6.802;2023-10-19T03:03:53;99099.72;;;17.59;nan
79372;BME280;68914;51.262;6.802;2023-10-19T03:04:54;99090.66;;;17.60;nan
79372;BME280;68914;51.262;6.802;2023-10-19T03:05:55;99090.53;;;17.46;nan
79372;BME280;68914;51.262;6.802;2023-10-19T03:06:56;99085.41;;;17.55;nan
79372;BME280;68914;51.262;6.802;2023-10-19T03:07:57;99093.41;;;17.98;nan
79372;BME280;68914;51.262;6.802;2023-10-19T03:08:58;99088.22;;;17.39;nan
79372;BME280;68914;51.262;6.802;2023-10-19T03:10:02;99089.97;;;17.25;nan
79372;BME280;68914;51.262;6.802;2023-10-19T03:11:05;99076.88;;;18.14;nan
79372;BME280;68914;51.262;6.802;2023-10-19T03:12:07;99082.34;;;18.75;nan
79372;BME280;68914;51.262;6.802;2023-10-19T03:13:11;99082.19;;;18.66;nan
79372;BME280;68914;51.262;6.802;2023-10-19T03:14:15;99084.06;;;19.53;nan
79372;BME280;68914;51.262;6.802;2023-10-19T03:15:17;99079.91;;;18.08;nan
79372;BME280;68914;51.262;6.802;2023-10-19T03:16:21;99083.69;;;19.05;nan
79372;BME280;68914;51.262;6.802;2023-10-19T03:17:22;99080.28;;;18.99;nan
79372;BME280;68914;51.262;6.802;2023-10-19T03:18:24;99071.41;;;19.04;nan
79372;BME280;68914;51.262;6.802;2023-10-19T03:19:26;99082.00;;;19.36;nan
79372;BME280;68914;51.262;6.802;2023-10-19T03:20:30;99079.53;;;19.26;nan
79372;BME280;68914;51.262;6.802;2023-10-19T03:21:35;99078.03;;;19.06;nan
79372;BME280;68914;51.262;6.802;2023-10-19T03:22:43;99066.13;;;19.68;nan
79372;BME280;68914;51.262;6.802;2023-10-19T03:23:44;99060.66;;;18.43;nan
79372;BME280;68914;51.262;6.802;2023-10-19T03:24:45;99063.38;;;19.31;nan
79372;BME280;68914;51.262;6.802;2023-10-19T03:25:45;99065.22;;;18.43;nan
79372;BME280;68914;51.262;6.802;2023-10-19T03:26:50;99067.00;;;18.80;nan
79372;BME280;68914;51.262;6.802;2023-10-19T03:27:51;99066.19;;;18.33;nan
79372;BME280;68914;51.262;6.802;2023-10-19T03:28:53;99060.94;;;18.09;nan
79372;BME280;68914;51.262;6.802;2023-10-19T03:30:01;99068.84;;;18.66;nan
79372;BME280;68914;51.262;6.802;2023-10-19T03:31:01;99064.88;;;18.63;nan
79372;BME280;68914;51.262;6.802;2023-10-19T03:32:02;99067.38;;;18.41;nan
79372;BME280;68914;51.262;6.802;2023-10-19T03:33:04;99060.66;;;18.43;nan
79372;BME280;68914;51.262;6.802;2023-10-19T03:34:05;99065.44;;;18.47;nan
79372;BME280;68914;51.262;6.802;2023-10-19T03:35:06;99062.09;;;18.55;nan
79372;BME280;68914;51.262;6.802;2023-10-19T03:36:07;99066.84;;;18.58;nan
79372;BME280;68914;51.262;6.802;2023-10-19T03:37:13;99063.56;;;18.47;nan
79372;BME280;68914;51.262;6.802;2023-10-19T03:38:14;99060.53;;;18.67;nan
79372;BME280;68914;51.262;6.802;2023-10-19T03:39:17;99060.53;;;18.54;nan
79372;BME280;68914;51.262;6.802;2023-10-19T03:40:20;99057.53;;;18.74;nan
79372;BME280;68914;51.262;6.802;2023-10-19T03:41:30;99062.72;;;19.26;nan
79372;BME280;68914;51.262;6.802;2023-10-19T03:42:36;99065.38;;;19.26;nan
79372;BME280;68914;51.262;6.802;2023-10-19T03:43:41;99058.38;;;18.70;nan
79372;BME280;68914;51.262;6.802;2023-10-19T03:44:42;99060.44;;;19.33;nan
79372;BME280;68914;51.262;6.802;2023-10-19T03:45:46;99059.31;;;18.79;nan
79372;BME280;68914;51.262;6.802;2023-10-19T03:46:52;99063.59;;;19.07;nan
79372;BME280;68914;51.262;6.802;2023-10-19T03:47:53;99061.63;;;18.66;nan
79372;BME280;68914;51.262;6.802;2023-10-19T03:49:01;99053.19;;;18.59;nan
79372;BME280;68914;51.262;6.802;2023-10-19T03:50:11;99053.22;;;18.27;nan
79372;BME280;68914;51.262;6.802;2023-10-19T03:51:16;99059.47;;;18.36;nan
79372;BME280;68914;51.262;6.802;2023-10-19T03:52:17;99046.25;;;18.44;nan
79372;BME280;68914;51.262;6.802;2023-10-19T03:53:18;99051.31;;;19.06;nan
79372;BME280;68914;51.262;6.802;2023-10-19T03:54:19;99054.69;;;19.12;nan
79372;BME280;68914;51.262;6.802;2023-10-19T03:55:21;99046.63;;;18.38;nan
79372;BME280;68914;51.262;6.802;2023-10-19T03:56:23;99053.75;;;19.72;nan
79372;BME280;68914;51.262;6.802;2023-10-19T03:57:24;99042.22;;;18.61;nan
79372;BME280;68914;51.262;6.802;2023-10-19T03:58:29;99044.59;;;19.23;nan
79372;BME280;68914;51.262;6.802;2023-10-19T03:59:31;99040.44;;;19.16;nan
79372;BME280;68914;51.262;6.802;2023-10-19T04:00:34;99039.44;;;19.26;nan
79372;BME280;68914;51.262;6.802;2023-10-19T04:01:35;99036.44;;;19.55;nan
79372;BME280;68914;51.262;6.802;2023-10-19T04:02:35;99031.16;;;19.78;nan
79372;BME280;68914;51.262;6.802;2023-10-19T04:03:38;99029.44;;;20.18;nan
79372;BME280;68914;51.262;6.802;2023-10-19T04:04:44;99039.13;;;19.41;nan
79372;BME280;68914;51.262;6.802;2023-10-19T04:05:48;99040.31;;;19.35;nan
79372;BME280;68914;51.262;6.802;2023-10-19T04:06:49;99040.44;;;19.03;nan
79372;BME280;68914;51.262;6.802;2023-10-19T04:07:57;99039.19;;;18.67;nan
79372;BME280;68914;51.262;6.802;2023-10-19T04:08:59;99039.34;;;18.90;nan
79372;BME280;68914;51.262;6.802;2023-10-19T04:09:59;99041.69;;;18.45;nan
79372;BME280;68914;51.262;6.802;2023-10-19T04:11:10;99048.94;;;18.91;nan
79372;BME280;68914;51.262;6.802;2023-10-19T04:12:12;99043.34;;;17.89;nan
79372;BME280;68914;51.262;6.802;2023-10-19T04:13:13;99041.00;;;18.39;nan
79372;BME280;68914;51.262;6.802;2023-10-19T04:14:14;99039.84;;;18.59;nan
79372;BME280;68914;51.262;6.802;2023-10-19T04:15:20;99039.03;;;18.78;nan
79372;BME280;68914;51.262;6.802;2023-10-19T04:16:21;99037.28;;;19.01;nan
79372;BME280;68914;51.262;6.802;2023-10-19T04:17:22;99032.66;;;18.27;nan
79372;BME280;68914;51.262;6.802;2023-10-19T04:18:24;99037.47;;;19.04;nan
79372;BME280;68914;51.262;6.802;2023-10-19T04:19:26;99030.19;;;18.63;nan
79372;BME280;68914;51.262;6.802;2023-10-19T04:20:29;99030.41;;;18.34;nan
79372;BME280;68914;51.262;6.802;2023-10-19T04:21:35;99040.06;;;18.63;nan
79372;BME280;68914;51.262;6.802;2023-10-19T04:22:39;99043.09;;;19.03;nan
79372;BME280;68914;51.262;6.802;2023-10-19T04:23:39;99042.91;;;19.27;nan
79372;BME280;68914;51.262;6.802;2023-10-19T04:24:41;99042.59;;;18.87;nan
79372;BME280;68914;51.262;6.802;2023-10-19T04:25:41;99035.72;;;18.67;nan
79372;BME280;68914;51.262;6.802;2023-10-19T04:26:42;99034.31;;;19.30;nan
79372;BME280;68914;51.262;6.802;2023-10-19T04:27:43;99036.66;;;19.04;nan
79372;BME280;68914;51.262;6.802;2023-10-19T04:28:44;99031.81;;;18.92;nan
79372;BME280;68914;51.262;6.802;2023-10-19T04:29:50;99036.66;;;19.45;nan
79372;BME280;68914;51.262;6.802;2023-10-19T04:30:52;99035.88;;;18.89;nan
79372;BME280;68914;51.262;6.802;2023-10-19T04:31:53;99038.47;;;18.81;nan
79372;BME280;68914;51.262;6.802;2023-10-19T04:32:57;99042.50;;;18.92;nan
79372;BME280;68914;51.262;6.802;2023-10-19T04:33:58;99038.03;;;18.87;nan
79372;BME280;68914;51.262;6.802;2023-10-19T04:34:59;99042.63;;;19.28;nan
79372;BME280;68914;51.262;6.802;2023-10-19T04:35:59;99042.19;;;18.14;nan
79372;BME280;68914;51.262;6.802;2023-10-19T04:37:01;99035.41;;;18.68;nan
79372;BME280;68914;51.262;6.802;2023-10-19T04:38:04;99035.00;;;17.96;nan
79372;BME280;68914;51.262;6.802;2023-10-19T04:39:08;99036.78;;;18.19;nan
79372;BME280;68914;51.262;6.802;2023-10-19T04:40:14;99042.91;;;18.85;nan
79372;BME280;68914;51.262;6.802;2023-10-19T04:41:14;99047.47;;;19.12;nan
79372;BME280;68914;51.262;6.802;2023-10-19T04:42:15;99044.09;;;18.93;nan
79372;BME280;68914;51.262;6.802;2023-10-19T04:43:16;99044.66;;;18.43;nan
79372;BME280;68914;51.262;6.802;2023-10-19T04:44:21;99033.00;;;18.39;nan
79372;BME280;68914;51.262;6.802;2023-10-19T04:45:23;99045.09;;;19.25;nan
79372;BME280;68914;51.262;6.802;2023-10-19T04:46:24;99033.56;;;18.69;nan
79372;BME280;68914;51.262;6.802;2023-10-19T04:47:24;99032.09;;;18.44;nan
79372;BME280;68914;51.262;6.802;2023-10-19T04:48:25;99042.13;;;19.12;nan
79372;BME280;68914;51.262;6.802;2023-10-19T04:49:26;99041.81;;;18.86;nan
79372;BME280;68914;51.262;6.802;2023-10-19T04:50:26;99039.44;;;18.99;nan
79372;BME280;68914;51.262;6.802;2023-10-19T04:51:28;99033.19;;;18.43;nan
79372;BME280;68914;51.262;6.802;2023-10-19T04:52:29;99035.75;;;18.34;nan
79372;BME280;68914;51.262;6.802;2023-10-19T04:53:31;99034.78;;;18.44;nan
79372;BME280;68914;51.262;6.802;2023-10-19T04:54:32;99035.84;;;18.76;nan
79372;BME280;68914;51.262;6.802;2023-10-19T04:55:33;99036.97;;;19.02;nan
79372;BME280;68914;51.262;6.802;2023-10-19T04:56:34;99036.44;;;18.40;nan
79372;BME280;68914;51.262;6.802;2023-10-19T04:57:36;99036.31;;;18.64;nan
79372;BME280;68914;51.262;6.802;2023-10-19T04:58:37;99041.31;;;18.19;nan
79372;BME280;68914;51.262;6.802;2023-10-19T04:59:37;99037.09;;;18.97;nan
79372;BME280;68914;51.262;6.802;2023-10-19T05:00:38;99031.31;;;19.45;nan
79372;BME280;68914;51.262;6.802;2023-10-19T05:01:38;99029.75;;;19.03;nan
79372;BME280;68914;51.262;6.802;2023-10-19T05:02:41;99031.31;;;19.31;nan
79372;BME280;68914;51.262;6.802;2023-10-19T05:03:42;99026.56;;;19.42;nan
79372;BME280;68914;51.262;6.802;2023-10-19T05:04:43;99038.66;;;19.12;nan
79372;BME280;68914;51.262;6.802;2023-10-19T05:05:44;99032.44;;;18.89;nan
79372;BME280;68914;51.262;6.802;2023-10-19T05:06:46;99038.66;;;19.12;nan
79372;BME280;68914;51.262;6.802;2023-10-19T05:07:46;99038.00;;;19.84;nan
79372;BME280;68914;51.262;6.802;2023-10-19T05:08:47;99035.84;;;19.58;nan
79372;BME280;68914;51.262;6.802;2023-10-19T05:09:48;99032.28;;;20.22;nan
79372;BME280;68914;51.262;6.802;2023-10-19T05:10:49;99040.31;;;19.49;nan
79372;BME280;68914;51.262;6.802;2023-10-19T05:11:49;99046.16;;;19.65;nan
79372;BME280;68914;51.262;6.802;2023-10-19T05:12:52;99036.84;;;19.99;nan
79372;BME280;68914;51.262;6.802;2023-10-19T05:13:55;99039.75;;;19.25;nan
79372;BME280;68914;51.262;6.802;2023-10-19T05:14:56;99044.38;;;18.78;nan
79372;BME280;68914;51.262;6.802;2023-10-19T05:15:56;99052.97;;;18.75;nan
79372;BME280;68914;51.262;6.802;2023-10-19T05:16:59;99048.13;;;19.04;nan
79372;BME280;68914;51.262;6.802;2023-10-19T05:18:00;99048.97;;;19.82;nan
79372;BME280;68914;51.262;6.802;2023-10-19T05:19:01;99043.28;;;19.98;nan
79372;BME280;68914;51.262;6.802;2023-10-19T05:20:04;99047.44;;;19.68;nan
79372;BME280;68914;51.262;6.802;2023-10-19T05:21:05;99037.09;;;20.11;nan
79372;BME280;68914;51.262;6.802;2023-10-19T05:22:08;99047.25;;;20.23;nan
79372;BME280;68914;51.262;6.802;2023-10-19T05:23:10;99038.59;;;20.03;nan
79372;BME280;68914;51.262;6.802;2023-10-19T05:24:11;99041.78;;;20.28;nan
79372;BME280;68914;51.262;6.802;2023-10-19T05:25:11;99034.91;;;20.13;nan
79372;BME280;68914;51.262;6.802;2023-10-19T05:26:12;99039.97;;;19.78;nan
79372;BME280;68914;51.262;6.802;2023-10-19T05:27:15;99034.69;;;19.87;nan
79372;BME280;68914;51.262;6.802;2023-10-19T05:28:15;99035.28;;;19.34;nan
79372;BME280;68914;51.262;6.802;2023-10-19T05:29:16;99028.53;;;20.00;nan
79372;BME280;68914;51.262;6.802;2023-10-19T05:30:17;99033.50;;;19.93;nan
79372;BME280;68914;51.262;6.802;2023-10-19T05:31:17;99035.44;;;19.51;nan
79372;BME280;68914;51.262;6.802;2023-10-19T05:32:18;99038.63;;;19.67;nan
79372;BME280;68914;51.262;6.802;2023-10-19T05:33:19;99036.00;;;19.26;nan
79372;BME280;68914;51.262;6.802;2023-10-19T05:34:27;99040.28;;;19.77;nan
79372;BME280;68914;51.262;6.802;2023-10-19T05:35:30;99038.78;;;19.21;nan
79372;BME280;68914;51.262;6.802;2023-10-19T05:36:30;99037.06;;;19.52;nan
79372;BME280;68914;51.262;6.802;2023-10-19T05:37:32;99037.41;;;19.59;nan
79372;BME280;68914;51.262;6.802;2023-10-19T05:38:34;99039.25;;;19.36;nan
79372;BME280;68914;51.262;6.802;2023-10-19T05:39:35;99026.94;;;20.22;nan
79372;BME280;68914;51.262;6.802;2023-10-19T05:40:36;99031.09;;;19.92;nan
79372;BME280;68914;51.262;6.802;2023-10-19T05:41:39;99038.53;;;19.95;nan
79372;BME280;68914;51.262;6.802;2023-10-19T05:42:40;99030.78;;;20.29;nan
79372;BME280;68914;51.262;6.802;2023-10-19T05:43:41;99022.97;;;19.60;nan
79372;BME280;68914;51.262;6.802;2023-10-19T05:44:43;99035.56;;;20.19;nan
79372;BME280;68914;51.262;6.802;2023-10-19T05:45:44;99045.31;;;20.14;nan